createdAt,value
2022-12-25T00:01:46.718Z,12.60
2022-12-25T00:04:14.079Z,12.60
2022-12-25T00:06:41.409Z,12.60
2022-12-25T00:09:08.764Z,12.60
2022-12-25T00:11:36.073Z,12.60
2022-12-25T00:14:03.553Z,12.60
2022-12-25T00:16:30.957Z,12.60
2022-12-25T00:18:59.245Z,12.60
2022-12-25T00:21:26.578Z,12.50
2022-12-25T00:26:36.550Z,12.50
2022-12-25T00:29:03.857Z,12.50
2022-12-25T00:31:31.228Z,12.40
2022-12-25T00:33:58.679Z,12.40
2022-12-25T00:36:26.076Z,12.40
2022-12-25T00:38:53.458Z,12.40
2022-12-25T00:41:43.390Z,12.40
2022-12-25T00:44:13.844Z,12.40
2022-12-25T00:46:42.479Z,12.40
2022-12-25T00:49:11.133Z,12.40
2022-12-25T00:51:38.428Z,12.40
2022-12-25T00:54:05.823Z,12.40
2022-12-25T00:56:33.218Z,12.40
2022-12-25T00:59:00.559Z,12.40
2022-12-25T01:01:28.064Z,12.30
2022-12-25T01:03:55.732Z,12.30
2022-12-25T01:06:23.031Z,12.30
2022-12-25T01:09:09.703Z,12.30
2022-12-25T01:11:37.248Z,12.30
2022-12-25T01:14:04.683Z,12.20
2022-12-25T01:16:32.079Z,12.20
2022-12-25T01:18:59.789Z,12.20
2022-12-25T01:21:27.496Z,12.20
2022-12-25T01:23:55.087Z,12.20
2022-12-25T01:26:24.195Z,12.10
2022-12-25T01:28:52.413Z,12.10
2022-12-25T01:31:22.299Z,12.10
2022-12-25T01:33:50.323Z,12.10
2022-12-25T01:36:21.911Z,12.10
2022-12-25T01:38:50.801Z,12.00
2022-12-25T01:41:21.356Z,12.10
2022-12-25T01:44:28.251Z,12.10
2022-12-25T01:46:55.566Z,12.10
2022-12-25T01:49:25.894Z,12.00
2022-12-25T01:52:10.839Z,12.00
2022-12-25T01:54:51.624Z,12.00
2022-12-25T01:57:25.850Z,12.00
2022-12-25T01:59:54.781Z,12.00
2022-12-25T02:02:22.915Z,12.00
2022-12-25T02:05:18.226Z,12.10
2022-12-25T02:07:47.282Z,12.10
2022-12-25T02:10:14.754Z,12.10
2022-12-25T02:12:43.965Z,12.10
2022-12-25T02:15:18.541Z,12.10
2022-12-25T02:18:04.705Z,12.00
2022-12-25T02:20:44.187Z,12.00
2022-12-25T02:23:11.495Z,12.00
2022-12-25T02:26:04.397Z,12.00
2022-12-25T02:29:09.375Z,12.00
2022-12-25T02:31:54.440Z,12.00
2022-12-25T02:34:38.448Z,12.00
2022-12-25T02:37:06.380Z,12.00
2022-12-25T02:40:02.900Z,12.00
2022-12-25T02:43:17.639Z,12.00
2022-12-25T02:46:07.220Z,12.00
2022-12-25T02:48:57.719Z,12.00
2022-12-25T02:51:46.917Z,12.00
2022-12-25T02:54:37.567Z,12.00
2022-12-25T02:57:27.952Z,11.90
2022-12-25T03:00:16.392Z,12.00
2022-12-25T03:03:05.620Z,12.00
2022-12-25T03:05:56.695Z,12.00
2022-12-25T03:08:35.213Z,11.90
2022-12-25T03:11:26.839Z,11.90
2022-12-25T03:14:18.092Z,12.00
2022-12-25T03:16:53.719Z,11.90
2022-12-25T03:19:44.398Z,12.00
2022-12-25T03:22:35.434Z,12.00
2022-12-25T03:25:21.496Z,11.90
2022-12-25T03:27:54.951Z,12.00
2022-12-25T03:31:00.956Z,11.90
2022-12-25T03:34:05.769Z,12.00
2022-12-25T03:36:41.833Z,12.00
2022-12-25T03:39:47.852Z,12.00
2022-12-25T03:42:39.644Z,12.00
2022-12-25T03:45:53.926Z,12.00
2022-12-25T03:48:42.351Z,12.00
2022-12-25T03:51:31.349Z,12.00
2022-12-25T03:54:21.635Z,12.00
2022-12-25T03:57:09.039Z,12.00
2022-12-25T03:59:55.013Z,12.00
2022-12-25T04:02:40.942Z,12.00
2022-12-25T04:05:27.297Z,12.00
2022-12-25T04:08:13.298Z,12.00
2022-12-25T04:10:58.967Z,12.00
2022-12-25T04:13:44.668Z,12.00
2022-12-25T04:16:30.635Z,12.00
2022-12-25T04:19:16.473Z,12.00
2022-12-25T04:22:02.512Z,12.00
2022-12-25T04:24:48.501Z,12.00
2022-12-25T04:27:34.227Z,12.00
2022-12-25T04:30:20.281Z,12.00
2022-12-25T04:33:05.920Z,12.00
2022-12-25T04:35:51.642Z,12.00
2022-12-25T04:38:21.230Z,12.00
2022-12-25T04:40:48.480Z,12.00
2022-12-25T04:43:15.849Z,12.00
2022-12-25T04:45:43.182Z,12.00
2022-12-25T04:48:10.541Z,12.00
2022-12-25T04:50:37.835Z,12.00
2022-12-25T04:53:05.215Z,12.00
2022-12-25T04:55:32.443Z,11.90
2022-12-25T04:57:59.715Z,12.00
2022-12-25T05:00:27.022Z,12.00
2022-12-25T05:02:54.496Z,11.90
2022-12-25T05:05:21.836Z,11.90
2022-12-25T05:07:49.338Z,12.00
2022-12-25T05:10:16.634Z,11.90
2022-12-25T05:12:44.069Z,11.90
2022-12-25T05:15:11.489Z,11.90
2022-12-25T05:17:38.927Z,11.90
2022-12-25T05:20:07.361Z,11.90
2022-12-25T05:22:34.598Z,11.90
2022-12-25T05:25:01.951Z,11.90
2022-12-25T05:27:29.193Z,11.90
2022-12-25T05:29:56.526Z,11.90
2022-12-25T05:32:23.816Z,11.90
2022-12-25T05:34:51.073Z,11.90
2022-12-25T05:37:18.318Z,11.90
2022-12-25T05:39:45.662Z,11.80
2022-12-25T05:42:12.857Z,11.80
2022-12-25T05:44:40.124Z,11.80
2022-12-25T05:49:48.425Z,11.90
2022-12-25T05:52:15.725Z,11.90
2022-12-25T05:54:43.077Z,11.90
2022-12-25T05:57:10.295Z,11.90
2022-12-25T05:59:37.629Z,11.90
2022-12-25T06:02:04.952Z,11.90
2022-12-25T06:04:32.423Z,11.80
2022-12-25T06:06:59.674Z,11.80
2022-12-25T06:09:27.047Z,11.80
2022-12-25T06:11:54.346Z,11.70
2022-12-25T06:14:21.734Z,11.80
2022-12-25T06:16:54.704Z,11.70
2022-12-25T06:19:22.379Z,11.70
2022-12-25T06:21:54.511Z,11.70
2022-12-25T06:24:23.296Z,11.60
2022-12-25T06:26:51.236Z,11.60
2022-12-25T06:29:18.598Z,11.60
2022-12-25T06:31:45.968Z,11.60
2022-12-25T06:34:16.604Z,11.50
2022-12-25T06:36:43.959Z,11.50
2022-12-25T06:39:11.248Z,11.50
2022-12-25T06:41:38.608Z,11.50
2022-12-25T06:44:06.210Z,11.50
2022-12-25T06:46:33.646Z,11.50
2022-12-25T06:49:01.430Z,11.40
2022-12-25T06:51:30.983Z,11.40
2022-12-25T06:53:59.540Z,11.40
2022-12-25T06:56:28.482Z,11.40
2022-12-25T06:59:01.509Z,11.40
2022-12-25T07:01:32.933Z,11.40
2022-12-25T07:04:03.164Z,11.40
2022-12-25T07:06:31.027Z,11.40
2022-12-25T07:08:58.324Z,11.40
2022-12-25T07:11:25.999Z,11.40
2022-12-25T07:13:53.351Z,11.40
2022-12-25T07:16:20.987Z,11.40
2022-12-25T07:18:48.365Z,11.40
2022-12-25T07:21:18.124Z,11.40
2022-12-25T07:23:47.504Z,11.40
2022-12-25T07:26:15.485Z,11.40
2022-12-25T07:28:42.771Z,11.40
2022-12-25T07:31:15.261Z,11.40
2022-12-25T07:33:42.623Z,11.40
2022-12-25T07:36:12.884Z,11.40
2022-12-25T07:38:42.350Z,11.40
2022-12-25T07:41:11.186Z,11.40
2022-12-25T07:43:38.524Z,11.40
2022-12-25T07:46:06.599Z,11.40
2022-12-25T07:48:34.087Z,11.40
2022-12-25T07:51:05.202Z,11.40
2022-12-25T07:53:33.271Z,11.40
2022-12-25T07:56:13.693Z,11.40
2022-12-25T07:58:41.650Z,11.40
2022-12-25T08:01:21.528Z,11.40
2022-12-25T08:04:00.285Z,11.40
2022-12-25T08:06:33.638Z,11.40
2022-12-25T08:09:09.741Z,11.50
2022-12-25T08:11:37.664Z,11.40
2022-12-25T08:14:08.945Z,11.40
2022-12-25T08:16:39.960Z,11.40
2022-12-25T08:19:08.213Z,11.50
2022-12-25T08:21:35.420Z,11.50
2022-12-25T08:24:03.353Z,11.50
2022-12-25T08:26:30.634Z,11.50
2022-12-25T08:31:45.752Z,11.40
2022-12-25T08:34:13.940Z,11.40
2022-12-25T08:36:41.851Z,11.50
2022-12-25T08:39:09.267Z,11.40
2022-12-25T08:41:36.672Z,11.50
2022-12-25T08:44:05.156Z,11.50
2022-12-25T08:46:32.845Z,11.50
2022-12-25T08:49:00.274Z,11.50
2022-12-25T08:51:27.590Z,11.50
2022-12-25T08:53:59.728Z,11.60
2022-12-25T08:56:28.245Z,11.60
2022-12-25T08:58:55.474Z,11.60
2022-12-25T09:01:22.789Z,11.60
2022-12-25T09:03:50.156Z,11.60
2022-12-25T09:06:17.621Z,11.60
2022-12-25T09:08:49.227Z,11.70
2022-12-25T09:11:18.511Z,11.70
2022-12-25T09:13:45.759Z,11.80
2022-12-25T09:16:17.211Z,11.80
2022-12-25T09:18:44.689Z,11.80
2022-12-25T09:21:14.088Z,11.90
2022-12-25T09:23:41.762Z,11.90
2022-12-25T09:26:12.796Z,11.90
2022-12-25T09:28:45.137Z,12.00
2022-12-25T09:31:16.169Z,12.10
2022-12-25T09:33:43.512Z,12.10
2022-12-25T09:36:11.418Z,12.10
2022-12-25T09:38:38.838Z,12.20
2022-12-25T09:41:34.167Z,12.20
2022-12-25T09:44:07.087Z,12.40
2022-12-25T09:46:50.965Z,12.40
2022-12-25T09:49:55.939Z,12.50
2022-12-25T09:52:39.353Z,12.60
2022-12-25T09:55:21.659Z,12.70
2022-12-25T09:57:55.819Z,12.80
2022-12-25T10:00:27.776Z,12.90
2022-12-25T10:03:01.127Z,13.00
2022-12-25T10:05:53.015Z,13.10
2022-12-25T10:08:40.926Z,13.10
2022-12-25T10:11:27.129Z,13.20
2022-12-25T10:14:24.965Z,13.10
2022-12-25T10:17:13.942Z,13.20
2022-12-25T10:19:47.344Z,13.20
2022-12-25T10:22:25.917Z,13.30
2022-12-25T10:24:56.107Z,13.30
2022-12-25T10:27:31.639Z,13.30
2022-12-25T10:29:59.676Z,13.40
2022-12-25T10:32:26.943Z,13.40
2022-12-25T10:34:54.464Z,13.40
2022-12-25T10:37:22.052Z,13.50
2022-12-25T10:39:49.372Z,13.60
2022-12-25T10:42:19.478Z,13.60
2022-12-25T10:45:08.157Z,13.80
2022-12-25T10:47:38.590Z,13.80
2022-12-25T10:50:25.867Z,13.80
2022-12-25T10:53:05.398Z,13.90
2022-12-25T10:55:33.675Z,13.90
2022-12-25T10:58:02.240Z,14.00
2022-12-25T11:00:32.022Z,14.10
2022-12-25T11:03:00.012Z,14.10
2022-12-25T11:05:34.338Z,14.20
2022-12-25T11:08:03.225Z,14.30
2022-12-25T11:10:44.447Z,14.30
2022-12-25T11:13:22.732Z,14.30
2022-12-25T11:15:51.666Z,14.40
2022-12-25T11:18:25.309Z,14.50
2022-12-25T11:20:56.608Z,14.50
2022-12-25T11:23:26.405Z,14.60
2022-12-25T11:26:05.282Z,14.70
2022-12-25T11:28:37.211Z,14.80
2022-12-25T11:31:15.132Z,14.80
2022-12-25T11:34:25.356Z,14.90
2022-12-25T11:36:53.531Z,14.90
2022-12-25T11:39:30.529Z,14.90
2022-12-25T11:42:22.968Z,14.90
2022-12-25T11:45:13.895Z,15.00
2022-12-25T11:47:52.197Z,15.00
2022-12-25T11:50:31.080Z,15.10
2022-12-25T11:53:02.272Z,15.20
2022-12-25T11:55:32.671Z,15.20
2022-12-25T11:58:07.081Z,15.20
2022-12-25T12:00:36.134Z,15.30
2022-12-25T12:03:12.837Z,15.40
2022-12-25T12:05:55.771Z,15.60
2022-12-25T12:08:23.125Z,15.60
2022-12-25T12:11:17.781Z,15.80
2022-12-25T12:14:01.276Z,15.90
2022-12-25T12:16:29.440Z,15.90
2022-12-25T12:18:57.092Z,15.80
2022-12-25T12:21:31.844Z,15.80
2022-12-25T12:24:17.382Z,15.90
2022-12-25T12:26:46.864Z,15.80
2022-12-25T12:29:36.860Z,15.80
2022-12-25T12:32:06.988Z,15.80
2022-12-25T12:34:37.085Z,15.90
2022-12-25T12:37:21.310Z,15.90
2022-12-25T12:39:54.587Z,15.80
2022-12-25T12:42:26.412Z,15.80
2022-12-25T12:44:57.013Z,15.80
2022-12-25T12:47:33.820Z,15.80
2022-12-25T12:50:01.983Z,15.80
2022-12-25T12:52:38.886Z,15.80
2022-12-25T12:55:13.227Z,15.70
2022-12-25T12:57:41.425Z,15.70
2022-12-25T13:00:32.158Z,15.70
2022-12-25T13:03:29.942Z,15.70
2022-12-25T13:06:09.563Z,15.70
2022-12-25T13:08:57.777Z,15.70
2022-12-25T13:11:31.458Z,15.70
2022-12-25T13:14:01.196Z,15.70
2022-12-25T13:16:38.988Z,15.70
2022-12-25T13:19:15.180Z,15.70
2022-12-25T13:21:53.702Z,15.70
2022-12-25T13:24:24.311Z,15.70
2022-12-25T13:26:52.180Z,15.70
2022-12-25T13:29:28.571Z,15.70
2022-12-25T13:31:57.627Z,15.70
2022-12-25T13:34:39.466Z,15.70
2022-12-25T13:37:15.650Z,15.70
2022-12-25T13:39:53.517Z,15.70
2022-12-25T13:42:24.412Z,15.70
2022-12-25T13:45:00.486Z,15.80
2022-12-25T13:47:31.298Z,15.80
2022-12-25T13:50:01.514Z,15.70
2022-12-25T13:52:34.537Z,15.70
2022-12-25T13:55:17.034Z,15.70
2022-12-25T13:57:56.009Z,15.70
2022-12-25T14:00:32.292Z,15.70
2022-12-25T14:03:00.597Z,15.60
2022-12-25T14:05:41.624Z,15.60
2022-12-25T14:08:19.501Z,15.60
2022-12-25T14:10:50.334Z,15.50
2022-12-25T14:13:19.966Z,15.50
2022-12-25T14:15:48.199Z,15.50
2022-12-25T14:18:17.891Z,15.40
2022-12-25T14:21:35.775Z,15.40
2022-12-25T14:24:03.353Z,15.40
2022-12-25T14:26:33.623Z,15.40
2022-12-25T14:29:15.673Z,15.40
2022-12-25T14:31:46.298Z,15.40
2022-12-25T14:34:23.810Z,15.40
2022-12-25T14:36:52.977Z,15.40
2022-12-25T14:39:28.544Z,15.40
2022-12-25T14:41:55.891Z,15.40
2022-12-25T14:44:28.845Z,15.40
2022-12-25T14:47:11.425Z,15.40
2022-12-25T14:49:38.988Z,15.40
2022-12-25T14:52:20.941Z,15.40
2022-12-25T14:55:01.194Z,15.40
2022-12-25T14:57:33.909Z,15.30
2022-12-25T15:00:20.550Z,15.30
2022-12-25T15:02:49.710Z,15.30
2022-12-25T15:05:25.910Z,15.40
2022-12-25T15:08:02.509Z,15.40
2022-12-25T15:13:18.329Z,15.40
2022-12-25T15:16:08.257Z,15.40
2022-12-25T15:18:44.458Z,15.50
2022-12-25T15:21:18.772Z,15.50
2022-12-25T15:23:46.293Z,15.50
2022-12-25T15:26:14.810Z,15.40
2022-12-25T15:28:42.668Z,15.40
2022-12-25T15:31:23.741Z,15.40
2022-12-25T15:33:52.504Z,15.40
2022-12-25T15:36:19.704Z,15.40
2022-12-25T15:38:47.124Z,15.30
2022-12-25T15:41:36.341Z,15.30
2022-12-25T15:44:05.691Z,15.30
2022-12-25T15:46:34.180Z,15.30
2022-12-25T15:49:01.775Z,15.30
2022-12-25T15:51:29.267Z,15.20
2022-12-25T15:53:56.707Z,15.20
2022-12-25T15:56:24.200Z,15.10
2022-12-25T15:58:52.153Z,15.10
2022-12-25T16:01:20.768Z,15.10
2022-12-25T16:03:48.424Z,15.00
2022-12-25T16:06:17.903Z,15.00
2022-12-25T16:08:45.979Z,15.00
2022-12-25T16:11:13.317Z,14.90
2022-12-25T16:13:40.655Z,14.80
2022-12-25T16:16:08.125Z,14.80
2022-12-25T16:18:35.428Z,14.80
2022-12-25T16:21:02.675Z,14.70
2022-12-25T16:23:31.162Z,14.70
2022-12-25T16:25:59.135Z,14.70
2022-12-25T16:28:26.439Z,14.70
2022-12-25T16:30:53.724Z,14.60
2022-12-25T16:33:21.106Z,14.70
2022-12-25T16:35:48.556Z,14.70
2022-12-25T16:38:36.998Z,14.60
2022-12-25T16:41:09.403Z,14.60
2022-12-25T16:43:36.692Z,14.60
2022-12-25T16:46:26.060Z,14.60
2022-12-25T16:48:53.438Z,14.60
2022-12-25T16:51:21.737Z,14.60
2022-12-25T16:53:49.143Z,14.50
2022-12-25T16:56:20.746Z,14.50
2022-12-25T16:58:48.499Z,14.50
2022-12-25T17:01:19.638Z,14.50
2022-12-25T17:03:47.976Z,14.50
2022-12-25T17:06:20.797Z,14.50
2022-12-25T17:08:48.747Z,14.40
2022-12-25T17:11:19.240Z,14.40
2022-12-25T17:13:47.838Z,14.40
2022-12-25T17:16:23.178Z,14.40
2022-12-25T17:18:55.395Z,14.50
2022-12-25T17:21:24.152Z,14.40
2022-12-25T17:23:55.335Z,14.50
2022-12-25T17:26:25.687Z,14.60
2022-12-25T17:28:53.001Z,14.60
2022-12-25T17:31:20.387Z,14.60
2022-12-25T17:33:48.032Z,14.60
2022-12-25T17:36:18.232Z,14.70
2022-12-25T17:38:46.545Z,14.70
2022-12-25T17:41:16.074Z,14.70
2022-12-25T17:43:45.818Z,14.70
2022-12-25T17:46:15.210Z,14.60
2022-12-25T17:48:43.078Z,14.70
2022-12-25T17:51:13.459Z,14.70
2022-12-25T17:53:43.297Z,14.70
2022-12-25T17:56:11.998Z,14.70
2022-12-25T17:58:39.312Z,14.80
2022-12-25T18:01:15.621Z,14.80
2022-12-25T18:03:44.862Z,14.80
2022-12-25T18:06:14.278Z,14.80
2022-12-25T18:08:43.440Z,14.80
2022-12-25T18:11:15.467Z,14.80
2022-12-25T18:13:45.265Z,14.90
2022-12-25T18:16:13.700Z,14.80
2022-12-25T18:18:47.972Z,14.80
2022-12-25T18:21:19.609Z,14.80
2022-12-25T18:23:47.130Z,14.80
2022-12-25T18:26:14.981Z,14.80
2022-12-25T18:28:44.062Z,14.70
2022-12-25T18:31:15.128Z,14.70
2022-12-25T18:33:42.724Z,14.70
2022-12-25T18:36:13.764Z,14.70
2022-12-25T18:38:41.231Z,14.70
2022-12-25T18:41:10.335Z,14.80
2022-12-25T18:43:52.497Z,14.80
2022-12-25T18:46:26.977Z,14.80
2022-12-25T18:48:56.640Z,14.80
2022-12-25T18:51:24.384Z,14.80
2022-12-25T18:53:52.460Z,14.80
2022-12-25T18:56:20.251Z,14.80
2022-12-25T18:58:48.295Z,14.80
2022-12-25T19:01:21.807Z,14.80
2022-12-25T19:03:49.639Z,14.90
2022-12-25T19:06:26.392Z,14.90
2022-12-25T19:08:54.234Z,14.90
2022-12-25T19:11:22.094Z,14.90
2022-12-25T19:13:49.769Z,14.90
2022-12-25T19:16:17.940Z,14.90
2022-12-25T19:18:45.958Z,15.00
2022-12-25T19:21:13.254Z,15.10
2022-12-25T19:23:40.718Z,15.10
2022-12-25T19:26:11.321Z,15.10
2022-12-25T19:28:39.306Z,15.10
2022-12-25T19:31:08.491Z,15.10
2022-12-25T19:33:40.294Z,15.10
2022-12-25T19:36:11.902Z,15.20
2022-12-25T19:38:39.514Z,15.20
2022-12-25T19:41:18.107Z,15.20
2022-12-25T19:43:50.300Z,15.20
2022-12-25T19:46:26.379Z,15.10
2022-12-25T19:48:55.048Z,15.10
2022-12-25T19:51:29.210Z,15.00
2022-12-25T19:53:57.124Z,15.00
2022-12-25T19:56:26.193Z,14.90
2022-12-25T19:58:54.229Z,14.90
2022-12-25T20:01:24.540Z,14.90
2022-12-25T20:03:52.975Z,14.90
2022-12-25T20:06:27.269Z,14.90
2022-12-25T20:08:57.269Z,14.90
2022-12-25T20:11:26.827Z,14.80
2022-12-25T20:13:54.937Z,14.80
2022-12-25T20:16:23.028Z,14.70
2022-12-25T20:18:50.740Z,14.70
2022-12-25T20:21:21.171Z,14.70
2022-12-25T20:23:50.462Z,14.60
2022-12-25T20:26:20.215Z,14.60
2022-12-25T20:28:47.699Z,14.60
2022-12-25T20:31:19.286Z,14.50
2022-12-25T20:33:46.912Z,14.50
2022-12-25T20:36:15.150Z,14.40
2022-12-25T20:38:42.599Z,14.40
2022-12-25T20:41:29.444Z,14.40
2022-12-25T20:43:57.816Z,14.40
2022-12-25T20:46:26.050Z,14.40
2022-12-25T20:48:54.430Z,14.30
2022-12-25T20:51:23.859Z,14.30
2022-12-25T20:53:51.996Z,14.30
2022-12-25T20:56:21.755Z,14.20
2022-12-25T20:58:53.873Z,14.20
2022-12-25T21:01:21.731Z,14.10
2022-12-25T21:03:49.095Z,14.00
2022-12-25T21:06:17.034Z,14.10
2022-12-25T21:08:44.263Z,14.10
2022-12-25T21:11:11.921Z,14.10
2022-12-25T21:13:42.332Z,14.00
2022-12-25T21:16:14.734Z,14.00
2022-12-25T21:18:42.392Z,14.00
2022-12-25T21:21:10.525Z,13.90
2022-12-25T21:23:39.807Z,13.80
2022-12-25T21:26:27.900Z,13.80
2022-12-25T21:28:57.630Z,13.80
2022-12-25T21:31:25.713Z,13.70
2022-12-25T21:33:55.320Z,13.70
2022-12-25T21:36:25.415Z,13.80
2022-12-25T21:38:55.715Z,13.80
2022-12-25T21:41:23.519Z,13.70
2022-12-25T21:43:51.331Z,13.70
2022-12-25T21:46:18.788Z,13.60
2022-12-25T21:48:46.283Z,13.60
2022-12-25T21:51:44.712Z,13.60
2022-12-25T21:54:13.529Z,13.50
2022-12-25T21:56:44.947Z,13.50
2022-12-25T21:59:15.764Z,13.60
2022-12-25T22:01:44.045Z,13.60
2022-12-25T22:04:12.504Z,13.60
2022-12-25T22:06:58.090Z,13.60
2022-12-25T22:09:25.483Z,13.50
2022-12-25T22:12:11.434Z,13.50
2022-12-25T22:14:54.118Z,13.50
2022-12-25T22:18:00.927Z,13.50
2022-12-25T22:20:36.188Z,13.50
2022-12-25T22:23:04.273Z,13.40
2022-12-25T22:25:31.570Z,13.40
2022-12-25T22:27:58.944Z,13.30
2022-12-25T22:30:29.478Z,13.30
2022-12-25T22:32:57.671Z,13.30
2022-12-25T22:35:25.264Z,13.20
2022-12-25T22:37:54.203Z,13.20
2022-12-25T22:40:21.999Z,13.20
2022-12-25T22:42:49.439Z,13.20
2022-12-25T22:45:16.880Z,13.20
2022-12-25T22:47:44.221Z,13.30
2022-12-25T22:50:14.761Z,13.30
2022-12-25T22:52:42.678Z,13.30
2022-12-25T22:55:10.593Z,13.30
2022-12-25T22:57:37.944Z,13.30
2022-12-25T23:00:08.994Z,13.30
2022-12-25T23:02:36.836Z,13.30
2022-12-25T23:05:04.392Z,13.30
2022-12-25T23:07:31.748Z,13.40
2022-12-25T23:09:59.213Z,13.40
2022-12-25T23:12:45.179Z,13.40
2022-12-25T23:15:12.548Z,13.30
2022-12-25T23:17:58.465Z,13.40
2022-12-25T23:20:44.873Z,13.40
2022-12-25T23:23:34.990Z,13.40
2022-12-25T23:26:08.958Z,13.40
2022-12-25T23:29:01.868Z,13.40
2022-12-25T23:31:32.791Z,13.40
2022-12-25T23:34:00.664Z,13.40
2022-12-25T23:36:28.268Z,13.30
2022-12-25T23:38:55.619Z,13.30
2022-12-25T23:41:23.344Z,13.40
2022-12-25T23:43:51.214Z,13.40
2022-12-25T23:46:18.735Z,13.40
2022-12-25T23:48:46.180Z,13.40
2022-12-25T23:51:13.567Z,13.30
2022-12-25T23:53:40.915Z,13.30
2022-12-25T23:56:10.642Z,13.20
2022-12-25T23:58:38.156Z,13.30
